Airfield :
LOGIN :

Register | Disclaimer

   EN    FR    IT 

 










Legend :    VFR   Marginal VFR   IFR   Intensive IFR   Very Intensive IFR
Visi :
Ceiling :
>= 8 km
>= 3000ft
5 to 8 km
1000 to 3000 ft
1500m to 5 km
500 to 1000 ft
800 to 1500m
200 to 500 ft
< 800m
< 200 ft
Symbols :   Thunderstorms  Fog  Heavy snow  Heavy precipitations  Wind > 20 kt
SIGMETs :     Misc.  Thunderstorms  Icing  Turbulence  Mountain Waves  Volcanic Ashes






- Airport Elevation : 200 ft


EBBL - Klein Brogel AB

CURRENT METAR :
  • 040655Z 34004KT 9999 FEW020 16/12 Q1017 BLU BLU

EXPIRED METARs :
  • 040625Z 31003KT 8000 SCT300 15/12 Q1017 BLU BLU
  • 040620Z VRB02KT 8000 SCT300 14/12 Q1017 BLU BLU
  • 040555Z VRB02KT 5000 SCT300 12/12 Q1017 WHT WHT BECMG BLU
  • 040533Z VRB02KT 5000 SCT300 11/11 Q1017 WHT WHT BECMG BLU
  • 040518Z VRB01KT 4000 SCT300 11/11 Q1017 GRN GRN BECMG BLU
  • 040455Z VRB01KT 2500 SCT300 10/10 Q1017 YLO GRN BECMG BLU
  • 040445Z VRB02KT 2200 SKC 10/10 Q1016 YLO

TAF TAF EBBL
Valid from the 04 at 07:00 until the 04 at 16:00 UTC


040541Z 0407/0416 VRB03KT 9999 FEW300
BECMG 0410/0412 FEW025
TEMPO 0409/0416 30005G15KT



MET'MAP, your aeronautical weather chart ! - Copyright ORBIFLY December 2007 - Disclaimer

ORBIFLY MET'MAP TEAM :

Programming & Development : Alexandra Zaïnal
Concept & original design : Baudouin d'Aumeries
Assistance for programming : Marc-Olivier Méhu
Technical & hardware support : Manuel Goepfert

Contact : metmap@orbifly.com




SOURCES & CREDITS :

   NOAA